WetterOnline ( https://www.wetteronline.de )

Wetter aktuell Horben

Aktuelles Wetter: Freiburg/Flugplatz (236m)

6-stündlich | Neueste Meldungen
Ortszeit Temperatur Wetter
Mi, 11.12. 13:00 3.3° C leichter Regen
Mi, 11.12. 7:00 -2.0° C bedeckt
Mi, 11.12. 1:00 -2.9° C wolkig
Di, 10.12. 19:00 0.8° C wolkenlos
Di, 10.12. 13:00 6.0° C wolkenlos
Di, 10.12. 7:00 1.5° C bedeckt
Di, 10.12. 1:00 5.5° C bewölkt
Mo, 09.12. 19:00 7.0° C bedeckt
Ortszeit Temperatur Wetter
Mi, 11.12. 13:00 3.3° C leichter Regen
Mi, 11.12. 12:50 3.3° C leichter Regen
Mi, 11.12. 12:40 3.5° C leichter Regen
Mi, 11.12. 12:30 3.3° C leichter Regen
Mi, 11.12. 12:20 3.3° C leichter Regen
Mi, 11.12. 12:10 3.4° C bedeckt
Mi, 11.12. 12:00 3.1° C bedeckt
Mi, 11.12. 11:30 2.4° C bedeckt
Mi, 11.12. 11:00 2.1° C bewölkt
Mi, 11.12. 10:30 1.3° C wolkig
Mi, 11.12. 10:00 0.8° C bewölkt
Ortszeit Relative Feuchte Sichtweite
Mi, 11.12. 13:00 85% 7 km
Mi, 11.12. 7:00 91% 25 km
Mi, 11.12. 1:00 95% 12 km
Di, 10.12. 19:00 82% 45 km
Di, 10.12. 13:00 65% 30 km
Di, 10.12. 7:00 95% 20 km
Di, 10.12. 1:00 79% 60 km
Mo, 09.12. 19:00 78% 70 km
Ortszeit Relative Feuchte Sichtweite
Mi, 11.12. 13:00 85% 7 km
Mi, 11.12. 12:50 85% -
Mi, 11.12. 12:40 84% -
Mi, 11.12. 12:30 74% 12 km
Mi, 11.12. 12:20 74% -
Mi, 11.12. 12:10 72% -
Mi, 11.12. 12:00 74% 30 km
Mi, 11.12. 11:30 73% 40 km
Mi, 11.12. 11:00 83% 30 km
Mi, 11.12. 10:30 83% 28 km
Mi, 11.12. 10:00 86% 24 km
Ortszeit Niederschlagsmenge Niederschlagsart
Mi, 11.12. 13:00 0.2 l/m2 in 6 Std. Regen
Mi, 11.12. 7:00 0.0 l/m2 in 12 Std. -
Mi, 11.12. 1:00 0.0 l/m2 in 6 Std. -
Di, 10.12. 19:00 0.0 l/m2 in 12 Std. -
Di, 10.12. 13:00 0.0 l/m2 in 6 Std. -
Di, 10.12. 7:00 2 l/m2 in 12 Std. -
Di, 10.12. 1:00 2 l/m2 in 6 Std. Regen
Mo, 09.12. 19:00 1 l/m2 in 12 Std. Regen
Ortszeit Niederschlagsmenge Niederschlagsart
Mi, 11.12. 13:00 0.2 l/m2 in 1 Std. Regen
Mi, 11.12. 12:50 keine Meldung -
Mi, 11.12. 12:40 keine Meldung -
Mi, 11.12. 12:30 0.1 l/m2 in 1 Std. -
Mi, 11.12. 12:20 keine Meldung -
Mi, 11.12. 12:10 keine Meldung -
Mi, 11.12. 12:00 0.0 l/m2 in 1 Std. -
Mi, 11.12. 11:30 0.0 l/m2 in 1 Std. -
Mi, 11.12. 11:00 0.0 l/m2 in 1 Std. -
Mi, 11.12. 10:30 0.0 l/m2 in 1 Std. -
Mi, 11.12. 10:00 0.0 l/m2 in 1 Std. -
Ortszeit Stärke Spitze Richtung
km/h Bft. km/h Grad Sektor
Mi, 11.12. 13:00 6 1 15 310° NW
Mi, 11.12. 7:00 4 1 7 30° NO
Mi, 11.12. 1:00 0 0 18 - -
Di, 10.12. 19:00 4 1 18 140° SO
Di, 10.12. 13:00 7 2 22 240° SW
Di, 10.12. 7:00 0 0 29 - -
Di, 10.12. 1:00 13 3 39 330° NW
Mo, 09.12. 19:00 7 2 50 270° W
Ortszeit Stärke Spitze Richtung
km/h Bft. km/h Grad Sektor
Mi, 11.12. 13:00 6 1 11 310° NW
Mi, 11.12. 12:50 6 1 - 310° NW
Mi, 11.12. 12:40 4 1 - 350° N
Mi, 11.12. 12:30 2 1 6 300° NW
Mi, 11.12. 12:20 2 1 - 300° NW
Mi, 11.12. 12:10 2 1 - 210° SW
Mi, 11.12. 12:00 4 1 14 40° NO
Mi, 11.12. 11:30 4 1 14 350° N
Mi, 11.12. 11:00 6 1 7 350° N
Mi, 11.12. 10:30 4 1 7 320° NW
Mi, 11.12. 10:00 4 1 7 10° N
Ortszeit Untergrenze Bedeckung Gattung
total tief tief mittel hoch
Mi, 11.12. 13:00 1470 m 8/8 8/8 - - -
Mi, 11.12. 7:00 3000 m 8/8 8/8 - - -
Mi, 11.12. 1:00 9000 m 8/8 0/8 - - -
Di, 10.12. 19:00 - 0/8 0/8 - - -
Di, 10.12. 13:00 - 0/8 0/8 - - -
Di, 10.12. 7:00 1800 m 8/8 8/8 - - -
Di, 10.12. 1:00 840 m 7/8 7/8 - - -
Mo, 09.12. 19:00 870 m 8/8 8/8 - - -
Ortszeit Bedeckungsgrad in Achtel und Wolkenuntergrenze
Mi, 11.12. 13:00 6(1470m) 8(1500m)
Mi, 11.12. 12:50 6(1470m) 8(1500m)
Mi, 11.12. 12:40 5(1470m) 8(1500m)
Mi, 11.12. 12:30 5(1500m) 8(2100m) 8(2100m)
Mi, 11.12. 12:20 5(1500m) 8(2100m)
Mi, 11.12. 12:10 2(1800m) 8(2100m) 8(2700m)
Mi, 11.12. 12:00 8(2100m) 8(2700m) 8(2700m)
Mi, 11.12. 11:30 8(2100m) 8(3900m) 8(4800m)
Mi, 11.12. 11:00 1(1500m) 7(2100m) 8(3600m)
Mi, 11.12. 10:30 2(1800m) 8(3000m) 8(3900m)
Mi, 11.12. 10:00 2(1800m) 7(2100m) 8(5400m)
Ortszeit Luftdruck NN (hPa) Tendenz (hPa in 3 Std.)
Mi, 11.12. 13:00 1012 - 2,9
Mi, 11.12. 7:00 1017 - 2,1
Mi, 11.12. 1:00 1022 - 2,7
Di, 10.12. 19:00 1026 - 1,1
Di, 10.12. 13:00 1029 - 1,0
Di, 10.12. 7:00 1029 + 2,7
Di, 10.12. 1:00 1022 + 5,3
Mo, 09.12. 19:00 1012 + 5,2
Ortszeit Luftdruck NN (hPa) Tendenz (hPa in 3 Std.)
Mi, 11.12. 13:00 1012 - 2,9
Mi, 11.12. 12:50 1012 keine Meldung
Mi, 11.12. 12:40 1012 keine Meldung
Mi, 11.12. 12:30 1013 - 2,7
Mi, 11.12. 12:20 1013 keine Meldung
Mi, 11.12. 12:10 1013 keine Meldung
Mi, 11.12. 12:00 1013 - 2,4
Mi, 11.12. 11:30 1014 - 2,1
Mi, 11.12. 11:00 1015 - 1,7
Mi, 11.12. 10:30 1015 - 1,6
Mi, 11.12. 10:00 1015 - 1,8
Ortszeit Schneehöhe (cm)
Mi, 11.12. 13:00 0
Mi, 11.12. 7:00 0
Mi, 11.12. 1:00 0
Di, 10.12. 19:00 0
Di, 10.12. 13:00 0
Di, 10.12. 7:00 0
Di, 10.12. 1:00 0
Mo, 09.12. 19:00 0
Ortszeit Schneehöhe (cm)
Mi, 11.12. 13:00 0
Mi, 11.12. 12:50 0
Mi, 11.12. 12:40 0
Mi, 11.12. 12:30 0
Mi, 11.12. 12:20 0
Mi, 11.12. 12:10 0
Mi, 11.12. 12:00 0
Mi, 11.12. 11:30 0
Mi, 11.12. 11:00 0
Mi, 11.12. 10:30 0
Mi, 11.12. 10:00 0
Link zu dieser Seite / Seite empfehlen

Das Wetter in ...